Time;durP1;ratioP1;P1;durP2;ratioP2;P2;SDS_P1;SDS_P2;PMS_P1;PMS_P2;Temp;Humidity;BMP_temperature;BMP_pressure;BME280_temperature;BME280_humidity;BME280_pressure;Samples;Min_cycle;Max_cycle;Signal;HPM_P1;HPM_P2
2023/08/08 00:02:44;;;;;;;1.05;0.50;;;18.00;99.90;;;;;;1915891;74;21110;-90
2023/08/08 00:05:35;;;;;;;0.45;0.40;;;17.90;99.90;;;;;;1883140;76;21114;-91
2023/08/08 00:08:26;;;;;;;0.60;0.50;;;17.80;99.90;;;;;;1894421;75;21129;-89
2023/08/08 00:11:17;;;;;;;0.93;0.40;;;17.80;99.90;;;;;;1915587;75;21352;-89
2023/08/08 00:16:47;;;;;;;0.65;0.42;;;17.70;99.90;;;;;;1961351;72;22218;-91
2023/08/08 00:19:38;;;;;;;1.55;0.57;;;17.70;99.90;;;;;;1940504;73;21137;-90
2023/08/08 00:22:30;;;;;;;0.82;0.50;;;17.70;99.90;;;;;;1932344;73;21117;-90
2023/08/08 00:25:21;;;;;;;0.93;0.47;;;17.70;99.90;;;;;;1918154;75;21116;-89
2023/08/08 00:28:13;;;;;;;1.80;0.70;;;17.60;99.90;;;;;;1917118;73;21206;-91
2023/08/08 00:31:04;;;;;;;0.70;0.60;;;17.40;99.90;;;;;;1916338;75;21098;-91
2023/08/08 00:37:08;;;;;;;0.95;0.55;;;17.50;99.90;;;;;;2012599;71;22191;-91
2023/08/08 00:39:59;;;;;;;0.60;0.40;;;17.40;99.90;;;;;;1967419;72;21704;-91
2023/08/08 01:04:43;;;;;;;0.88;0.40;;;16.90;99.90;;;;;;1931798;72;22210;-91
2023/08/08 01:07:37;;;;;;;0.72;0.45;;;16.90;99.90;;;;;;1883299;75;21197;-92
2023/08/08 01:29:48;;;;;;;0.90;0.60;;;16.60;99.90;;;;;;1961396;72;23510;-92
2023/08/08 01:32:40;;;;;;;0.75;0.55;;;16.70;99.90;;;;;;1924128;73;21137;-91
2023/08/08 01:35:34;;;;;;;1.07;0.57;;;16.70;99.90;;;;;;1915806;73;21113;-91
2023/08/08 01:41:39;;;;;;;0.42;0.40;;;16.60;99.90;;;;;;1973613;71;22434;-91
2023/08/08 01:44:32;;;;;;;2.35;0.65;;;16.50;99.90;;;;;;1952247;73;21114;-91
2023/08/08 01:47:23;;;;;;;1.35;0.60;;;16.50;99.90;;;;;;1995782;70;21172;-91
2023/08/08 01:50:15;;;;;;;1.98;0.80;;;16.50;99.90;;;;;;1992008;70;21101;-92
2023/08/08 01:55:44;;;;;;;0.80;0.50;;;16.40;99.90;;;;;;1962055;72;22239;-91
2023/08/08 01:58:35;;;;;;;0.88;0.50;;;16.40;99.90;;;;;;1916138;75;21205;-92
2023/08/08 02:01:27;;;;;;;0.98;0.60;;;16.20;99.90;;;;;;1918027;73;21137;-91
2023/08/08 02:04:19;;;;;;;0.95;0.40;;;16.20;99.90;;;;;;1916942;75;21180;-92
2023/08/08 02:07:10;;;;;;;1.42;0.50;;;16.10;99.90;;;;;;1932257;73;21130;-92
2023/08/08 02:10:02;;;;;;;1.17;0.50;;;16.10;99.90;;;;;;1880069;76;21102;-91
2023/08/08 02:12:53;;;;;;;1.02;0.50;;;16.20;99.90;;;;;;1916214;75;21181;-91
2023/08/08 02:15:45;;;;;;;2.85;0.50;;;16.20;99.90;;;;;;1916394;75;21123;-91
2023/08/08 02:18:40;;;;;;;1.22;0.40;;;16.30;99.90;;;;;;1916203;75;21132;-92
2023/08/08 02:38:53;;;;;;;1.17;0.42;;;16.20;99.90;;;;;;1947961;72;22220;-91
2023/08/08 02:44:36;;;;;;;1.40;0.70;;;16.20;99.90;;;;;;1959402;72;22152;-91
2023/08/08 02:47:27;;;;;;;0.98;0.40;;;16.30;99.90;;;;;;1915903;75;21133;-92
2023/08/08 02:50:19;;;;;;;1.25;0.40;;;16.30;99.90;;;;;;1916710;75;21102;-91
2023/08/08 02:53:11;;;;;;;1.00;0.47;;;16.30;99.90;;;;;;1927267;73;21114;-91
2023/08/08 02:56:03;;;;;;;1.37;0.53;;;16.30;99.90;;;;;;1924656;73;21133;-91
2023/08/08 02:58:56;;;;;;;0.72;0.57;;;16.30;99.90;;;;;;1950550;73;21178;-92
2023/08/08 03:01:49;;;;;;;2.55;0.50;;;16.30;99.90;;;;;;1933343;73;21168;-91
2023/08/08 03:04:40;;;;;;;1.30;0.60;;;16.30;99.90;;;;;;1937965;73;21113;-91
2023/08/08 03:07:32;;;;;;;2.95;0.68;;;16.20;99.90;;;;;;1938491;73;21133;-93
2023/08/08 03:10:24;;;;;;;2.37;0.50;;;16.20;99.90;;;;;;1913696;75;21160;-92
2023/08/08 03:13:15;;;;;;;4.72;0.70;;;16.10;99.90;;;;;;1912733;75;21129;-92
2023/08/08 03:16:07;;;;;;;1.32;0.50;;;16.20;99.90;;;;;;1914641;73;21215;-93
2023/08/08 03:18:59;;;;;;;2.25;0.53;;;16.10;99.90;;;;;;1925382;73;21172;-92
2023/08/08 03:21:51;;;;;;;0.90;0.50;;;16.10;99.90;;;;;;1950401;73;21112;-92
2023/08/08 03:24:43;;;;;;;0.70;0.42;;;16.10;99.90;;;;;;1950413;73;21106;-92
2023/08/08 03:27:34;;;;;;;0.90;0.60;;;16.10;99.90;;;;;;1916689;75;21631;-92
2023/08/08 03:30:26;;;;;;;1.82;0.40;;;16.00;99.90;;;;;;1916431;75;21148;-92
2023/08/08 03:33:18;;;;;;;1.45;0.55;;;16.00;99.90;;;;;;1919989;75;21117;-93
2023/08/08 03:36:09;;;;;;;1.42;0.68;;;16.00;99.90;;;;;;1938801;73;21102;-92
2023/08/08 03:39:03;;;;;;;1.85;0.42;;;15.90;99.90;;;;;;1935080;73;21149;-93
2023/08/08 03:41:54;;;;;;;2.47;0.57;;;15.90;99.90;;;;;;1928265;73;21187;-92
2023/08/08 03:44:45;;;;;;;0.57;0.45;;;15.90;99.90;;;;;;1919059;73;21142;-92
2023/08/08 03:47:37;;;;;;;2.25;0.78;;;15.80;99.90;;;;;;1914992;74;21156;-92
2023/08/08 03:50:28;;;;;;;0.80;0.50;;;15.90;99.90;;;;;;1933066;73;21127;-92
2023/08/08 03:53:20;;;;;;;2.05;0.60;;;15.90;99.90;;;;;;1927584;73;21192;-92
2023/08/08 03:59:03;;;;;;;1.90;1.00;;;15.80;99.90;;;;;;1974634;72;22306;-91
2023/08/08 04:01:54;;;;;;;1.10;0.60;;;15.80;99.90;;;;;;1943567;73;21117;-91
2023/08/08 04:04:45;;;;;;;1.00;0.53;;;15.80;99.90;;;;;;1929892;73;21180;-91
2023/08/08 04:07:37;;;;;;;2.80;0.60;;;15.80;99.90;;;;;;1928322;73;21134;-92
2023/08/08 04:10:28;;;;;;;1.57;0.40;;;15.90;99.90;;;;;;1921057;75;21087;-90
2023/08/08 04:13:19;;;;;;;0.93;0.55;;;15.80;99.90;;;;;;1879711;76;21105;-91
2023/08/08 04:16:10;;;;;;;1.10;0.50;;;15.80;99.90;;;;;;1916314;75;21169;-92
2023/08/08 04:19:03;;;;;;;1.17;0.53;;;15.70;99.90;;;;;;1923224;73;21047;-93
2023/08/08 04:35:01;;;;;;;1.45;0.50;;;15.60;99.90;;;;;;1859373;76;22283;-92
2023/08/08 04:59:15;;;;;;;1.30;0.47;;;15.50;99.90;;;;;;1949404;72;22174;-93
2023/08/08 05:02:06;;;;;;;2.83;0.65;;;15.50;99.90;;;;;;1883563;76;21114;-92
2023/08/08 05:04:57;;;;;;;0.93;0.60;;;15.50;99.90;;;;;;1898446;75;21193;-93
2023/08/08 05:07:49;;;;;;;1.57;0.60;;;15.50;99.90;;;;;;1907206;75;21617;-93
2023/08/08 05:10:40;;;;;;;0.98;0.55;;;15.50;99.90;;;;;;1886229;75;21125;-91
2023/08/08 05:16:17;;;;;;;2.55;0.85;;;15.50;99.90;;;;;;1959980;72;20232;-91
2023/08/08 05:19:08;;;;;;;0.90;0.70;;;15.60;99.90;;;;;;1925080;73;21140;-89
2023/08/08 05:21:59;;;;;;;0.80;0.50;;;15.50;99.90;;;;;;1933048;73;21102;-90
2023/08/08 05:24:51;;;;;;;1.27;0.70;;;15.50;99.90;;;;;;1929188;73;21110;-91
2023/08/08 05:30:50;;;;;;;0.98;0.50;;;15.50;99.90;;;;;;1986590;71;22231;-90
2023/08/08 05:33:41;;;;;;;13.22;2.10;;;15.50;99.90;;;;;;1948845;73;21540;-91
2023/08/08 05:36:33;;;;;;;3.22;0.82;;;15.50;99.90;;;;;;2019503;70;21110;-90
2023/08/08 05:39:25;;;;;;;4.80;1.05;;;15.50;99.90;;;;;;2010623;70;21179;-89
2023/08/08 05:46:02;;;;;;;12.45;2.58;;;15.60;99.90;;;;;;1989836;71;22150;-89
2023/08/08 05:51:38;;;;;;;2.85;0.80;;;15.60;99.90;;;;;;1932395;72;22149;-88
2023/08/08 05:54:29;;;;;;;0.93;0.60;;;15.70;99.90;;;;;;1888394;75;21191;-89
2023/08/08 06:00:10;;;;;;;1.50;0.80;;;15.80;99.90;;;;;;1948061;72;22170;-89
2023/08/08 06:03:05;;;;;;;1.65;0.75;;;15.80;99.90;;;;;;1916816;75;21165;-88
2023/08/08 06:05:59;;;;;;;0.93;0.53;;;15.90;99.90;;;;;;1916897;75;21064;-89
2023/08/08 06:08:50;;;;;;;1.62;0.80;;;15.90;99.90;;;;;;1917497;75;21118;-89
2023/08/08 06:11:42;;;;;;;2.00;0.90;;;15.90;99.90;;;;;;1917475;75;21163;-88
2023/08/08 06:14:33;;;;;;;1.17;0.60;;;16.00;99.90;;;;;;1918164;75;21146;-88
2023/08/08 06:17:25;;;;;;;7.87;1.17;;;16.10;99.90;;;;;;1930670;73;21129;-89
2023/08/08 06:20:17;;;;;;;6.80;0.95;;;16.10;99.90;;;;;;1922884;73;21107;-88
2023/08/08 06:23:08;;;;;;;1.32;0.70;;;16.10;99.90;;;;;;1926832;73;21641;-88
2023/08/08 06:26:00;;;;;;;1.25;0.68;;;16.10;99.90;;;;;;1918057;75;21118;-88
2023/08/08 06:28:52;;;;;;;1.15;0.75;;;16.20;99.90;;;;;;1917816;75;21196;-89
2023/08/08 06:31:44;;;;;;;1.17;0.88;;;16.20;99.90;;;;;;1940730;73;21143;-88
2023/08/08 06:37:18;;;;;;;2.35;0.98;;;16.30;99.90;;;;;;1955852;72;22367;-87
2023/08/08 06:40:14;;;;;;;3.67;1.00;;;16.40;99.90;;;;;;1924026;72;21094;-88
2023/08/08 06:43:05;;;;;;;2.72;1.10;;;16.50;99.90;;;;;;1933140;72;21086;-88
2023/08/08 06:45:56;;;;;;;4.30;2.35;;;16.50;99.90;;;;;;1919694;73;21626;-88
2023/08/08 06:48:50;;;;;;;4.03;2.25;;;16.60;99.90;;;;;;1936809;73;21077;-89
2023/08/08 06:54:21;;;;;;;4.60;2.10;;;16.60;99.90;;;;;;1945967;72;22286;-88
2023/08/08 06:59:52;;;;;;;3.20;1.70;;;16.80;99.90;;;;;;1928929;72;22180;-88
2023/08/08 07:02:44;;;;;;;6.80;1.87;;;16.80;99.90;;;;;;1895759;75;21124;-88
2023/08/08 07:05:35;;;;;;;2.45;1.70;;;16.90;99.90;;;;;;1887022;75;21098;-90
2023/08/08 07:08:27;;;;;;;3.05;1.95;;;16.90;99.90;;;;;;1874145;76;21051;-91
2023/08/08 07:13:56;;;;;;;4.58;1.90;;;17.10;99.90;;;;;;1948568;72;22174;-89
2023/08/08 07:16:48;;;;;;;3.50;1.92;;;17.20;99.90;;;;;;1897455;75;21063;-89
2023/08/08 07:19:40;;;;;;;4.45;2.10;;;17.20;99.90;;;;;;1901283;75;21151;-89
2023/08/08 07:22:32;;;;;;;3.05;2.15;;;17.30;99.90;;;;;;1917570;75;21113;-91
2023/08/08 07:25:23;;;;;;;2.45;1.57;;;17.30;99.90;;;;;;1894768;75;21102;-91
2023/08/08 07:28:15;;;;;;;3.50;1.90;;;17.30;99.90;;;;;;1912547;75;21067;-91
2023/08/08 07:31:07;;;;;;;4.28;2.02;;;17.40;99.90;;;;;;1897265;75;21168;-91
2023/08/08 07:33:58;;;;;;;2.42;1.55;;;17.40;99.90;;;;;;1892044;75;21148;-92
2023/08/08 07:36:49;;;;;;;2.58;1.47;;;17.50;99.90;;;;;;1893526;75;21108;-89
2023/08/08 07:39:40;;;;;;;2.25;1.57;;;17.60;99.90;;;;;;1884490;76;21115;-89
2023/08/08 07:42:31;;;;;;;2.67;2.00;;;17.60;99.90;;;;;;1900034;75;21102;-88
2023/08/08 07:45:23;;;;;;;2.83;2.15;;;17.70;99.90;;;;;;1900714;75;21055;-91
2023/08/08 07:48:14;;;;;;;8.00;2.77;;;17.80;99.90;;;;;;1887541;75;21110;-90
2023/08/08 07:51:06;;;;;;;4.22;3.00;;;17.80;99.90;;;;;;1884772;75;21204;-90
2023/08/08 07:57:12;;;;;;;4.53;2.77;;;18.00;99.90;;;;;;1987032;71;22134;-89
2023/08/08 08:00:11;;;;;;;3.95;2.40;;;18.10;99.90;;;;;;1953293;73;21040;-89
2023/08/08 08:03:00;;;;;;;2.95;2.52;;;18.20;99.90;;;;;;2048134;69;21079;-89
2023/08/08 08:05:51;;;;;;;3.10;2.50;;;18.20;99.90;;;;;;2031828;70;21131;-88
2023/08/08 08:11:22;;;;;;;3.25;2.27;;;18.40;99.90;;;;;;1948696;72;22251;-90
2023/08/08 08:14:13;;;;;;;4.60;2.47;;;18.40;99.90;;;;;;1947237;73;21098;-89
2023/08/08 08:17:04;;;;;;;3.35;2.40;;;18.60;99.90;;;;;;1926712;73;21160;-91
2023/08/08 08:19:56;;;;;;;4.47;2.40;;;18.70;99.90;;;;;;1936540;73;21126;-91
2023/08/08 08:22:48;;;;;;;3.67;2.30;;;18.80;99.90;;;;;;1920713;73;21060;-89
2023/08/08 08:25:40;;;;;;;2.58;2.10;;;18.80;99.90;;;;;;1916712;73;21155;-90
2023/08/08 08:28:32;;;;;;;2.85;2.10;;;18.90;99.90;;;;;;1917012;75;21159;-90
2023/08/08 08:31:23;;;;;;;3.95;2.12;;;19.00;99.90;;;;;;1917310;73;21192;-92
2023/08/08 08:36:55;;;;;;;2.75;2.00;;;19.20;99.90;;;;;;1933767;72;22248;-89
2023/08/08 08:39:46;;;;;;;3.37;2.20;;;19.20;99.90;;;;;;1912067;75;21068;-89
2023/08/08 08:42:38;;;;;;;3.98;2.37;;;19.30;99.90;;;;;;1905389;75;21059;-90
2023/08/08 08:45:32;;;;;;;2.45;1.70;;;19.30;99.90;;;;;;1898603;75;21085;-89
2023/08/08 08:48:23;;;;;;;2.47;1.45;;;19.40;99.90;;;;;;1898299;75;21047;-90
2023/08/08 08:53:54;;;;;;;2.17;1.40;;;19.70;99.90;;;;;;1951666;72;22208;-89
2023/08/08 08:59:25;;;;;;;2.55;1.20;;;19.80;99.90;;;;;;1941816;72;22136;-89
2023/08/08 09:02:16;;;;;;;2.30;1.72;;;19.90;99.90;;;;;;1900436;75;21118;-90
2023/08/08 09:05:09;;;;;;;2.02;1.60;;;19.90;99.90;;;;;;1872983;75;21040;-89
2023/08/08 09:08:01;;;;;;;6.78;1.50;;;20.00;99.90;;;;;;1881187;75;21180;-90
2023/08/08 09:10:52;;;;;;;2.90;1.40;;;20.00;99.90;;;;;;1884486;75;21101;-90
2023/08/08 09:13:43;;;;;;;3.33;1.75;;;20.10;99.90;;;;;;1882043;75;21514;-91
2023/08/08 09:19:27;;;;;;;2.12;1.47;;;20.10;99.90;;;;;;1975975;72;22141;-90
2023/08/08 09:24:58;;;;;;;3.27;1.40;;;20.20;99.90;;;;;;1949925;72;22252;-90
2023/08/08 09:27:49;;;;;;;1.98;1.45;;;20.20;99.90;;;;;;1921060;73;21117;-89
2023/08/08 09:30:41;;;;;;;1.42;1.30;;;20.40;99.90;;;;;;1932215;73;21151;-89
2023/08/08 09:36:16;;;;;;;2.95;1.47;;;20.50;99.90;;;;;;2029343;70;22051;-88
2023/08/08 09:39:08;;;;;;;1.70;1.47;;;20.60;99.90;;;;;;1975731;72;21043;-89
2023/08/08 09:44:37;;;;;;;2.15;1.50;;;20.60;99.90;;;;;;1912706;72;22187;-87
2023/08/08 09:47:31;;;;;;;3.15;1.50;;;20.70;99.90;;;;;;1921822;73;21107;-89
2023/08/08 09:53:02;;;;;;;2.00;1.32;;;20.80;99.90;;;;;;1941058;72;22283;-88
2023/08/08 09:59:12;;;;;;;1.60;1.30;;;21.00;99.90;;;;;;1928711;73;22127;-88
2023/08/08 10:02:06;;;;;;;2.02;1.42;;;21.10;99.90;;;;;;1894248;74;21094;-88
2023/08/08 10:05:00;;;;;;;1.60;1.40;;;21.10;99.90;;;;;;1888956;75;21170;-88
2023/08/08 10:10:31;;;;;;;2.55;1.50;;;21.10;99.90;;;;;;1946471;72;22207;-88
2023/08/08 10:13:24;;;;;;;3.27;1.15;;;21.20;99.90;;;;;;1925125;73;21143;-90
2023/08/08 10:19:05;;;;;;;1.80;1.00;;;21.20;99.90;;;;;;1941835;72;22160;-90
2023/08/08 10:22:01;;;;;;;4.67;1.32;;;21.30;99.90;;;;;;1923540;73;21173;-90
2023/08/08 10:24:55;;;;;;;2.98;1.65;;;21.40;99.90;;;;;;1927504;74;21137;-88
2023/08/08 10:30:30;;;;;;;2.08;1.25;;;21.60;99.90;;;;;;1964156;72;22559;-88
2023/08/08 10:33:23;;;;;;;1.77;1.25;;;21.60;99.90;;;;;;1939750;73;21103;-89
2023/08/08 10:36:15;;;;;;;2.80;1.40;;;21.70;99.90;;;;;;1918723;73;21098;-88
2023/08/08 10:41:57;;;;;;;2.17;1.60;;;21.90;99.90;;;;;;1945035;72;22280;-90
2023/08/08 10:44:53;;;;;;;1.85;1.32;;;21.90;99.90;;;;;;1895305;75;21047;-89
2023/08/08 10:47:45;;;;;;;1.25;1.15;;;22.10;99.90;;;;;;1895207;75;21172;-88
2023/08/08 10:53:26;;;;;;;1.82;0.90;;;22.40;99.90;;;;;;1955128;72;22232;-88
2023/08/08 10:58:56;;;;;;;1.17;0.90;;;22.60;99.20;;;;;;1952535;72;22172;-89
2023/08/08 11:04:33;;;;;;;1.57;1.00;;;22.70;96.50;;;;;;1942836;72;20140;-88
2023/08/08 11:07:25;;;;;;;1.87;1.10;;;22.60;97.50;;;;;;1930719;73;21126;-88
2023/08/08 11:10:16;;;;;;;2.00;0.80;;;22.70;98.90;;;;;;1916524;75;21156;-89
2023/08/08 11:15:50;;;;;;;0.85;0.60;;;22.60;98.00;;;;;;1930323;72;22300;-88
2023/08/08 11:18:43;;;;;;;0.93;0.80;;;22.70;98.70;;;;;;1908973;75;21148;-88
2023/08/08 11:21:37;;;;;;;1.02;0.68;;;22.80;97.70;;;;;;1851438;76;21126;-87
2023/08/08 11:27:14;;;;;;;2.20;1.40;;;22.90;97.30;;;;;;1973180;72;20178;-88
2023/08/08 11:30:24;;;;;;;2.45;1.50;;;23.00;96.50;;;;;;1921283;73;21246;-88
2023/08/08 11:33:43;;;;;;;3.17;2.00;;;23.10;96.50;;;;;;1900427;75;21058;-88
2023/08/08 11:36:36;;;;;;;2.98;1.55;;;23.30;96.70;;;;;;1922843;73;21558;-88
2023/08/08 11:39:30;;;;;;;1.85;1.20;;;23.50;96.90;;;;;;1946494;73;21058;-88
2023/08/08 11:45:06;;;;;;;2.15;1.30;;;24.10;95.00;;;;;;1962777;72;22239;-87
2023/08/08 11:47:57;;;;;;;1.55;1.20;;;24.00;94.90;;;;;;1922263;74;21180;-87
2023/08/08 11:50:48;;;;;;;1.98;1.40;;;24.10;94.90;;;;;;1929083;74;21046;-87
2023/08/08 11:58:58;;;;;;;1.57;1.30;;;24.10;94.90;;;;;;1931847;72;22294;-87
2023/08/08 12:04:28;;;;;;;1.70;1.25;;;24.30;94.10;;;;;;1949280;72;22354;-87
2023/08/08 12:07:20;;;;;;;2.33;1.20;;;24.30;93.60;;;;;;1893200;75;21577;-87
2023/08/08 12:10:18;;;;;;;1.90;1.27;;;24.30;93.60;;;;;;1875284;75;21110;-87
2023/08/08 12:15:49;;;;;;;1.70;1.20;;;24.30;93.40;;;;;;1941530;72;22153;-87
2023/08/08 12:21:20;;;;;;;1.50;0.50;;;24.50;93.20;;;;;;1956883;72;22197;-87
2023/08/08 12:24:11;;;;;;;1.85;0.50;;;24.50;93.00;;;;;;1885064;75;21102;-88
2023/08/08 12:27:02;;;;;;;1.62;0.50;;;24.40;93.60;;;;;;1886792;75;21102;-88
2023/08/08 12:29:54;;;;;;;0.95;0.60;;;24.50;93.10;;;;;;1901920;75;21047;-87
2023/08/08 12:35:26;;;;;;;0.70;0.40;;;24.40;91.90;;;;;;1956034;72;22216;-88
2023/08/08 12:38:16;;;;;;;0.75;0.50;;;24.30;91.70;;;;;;1911085;74;21102;-88
2023/08/08 12:41:08;;;;;;;1.35;0.57;;;24.30;91.60;;;;;;1895269;75;21105;-88
2023/08/08 12:46:38;;;;;;;1.30;0.53;;;24.70;91.90;;;;;;1919916;72;22152;-86
2023/08/08 12:49:30;;;;;;;1.77;0.60;;;24.70;91.70;;;;;;1905518;75;21110;-88
2023/08/08 12:55:01;;;;;;;0.85;0.50;;;24.80;92.70;;;;;;1943009;72;22232;-86
2023/08/08 12:57:52;;;;;;;1.60;0.60;;;24.90;92.60;;;;;;1893079;75;21074;-87
2023/08/08 13:00:44;;;;;;;0.98;0.50;;;24.80;93.10;;;;;;1889547;75;21159;-88
2023/08/08 13:06:15;;;;;;;0.90;0.57;;;25.30;92.50;;;;;;1955291;72;22153;-87
2023/08/08 13:09:07;;;;;;;0.82;0.50;;;25.50;91.90;;;;;;1892174;75;21114;-85
2023/08/08 13:11:59;;;;;;;1.80;0.78;;;25.20;91.80;;;;;;1887727;75;21095;-89
2023/08/08 13:14:51;;;;;;;0.70;0.60;;;25.20;90.80;;;;;;1884351;76;21146;-82
2023/08/08 13:20:27;;;;;;;0.75;0.42;;;25.30;90.10;;;;;;1950242;72;22182;-89
2023/08/08 13:26:03;;;;;;;0.72;0.50;;;25.40;90.80;;;;;;1958122;72;22290;-89
2023/08/08 13:28:54;;;;;;;1.98;0.53;;;25.50;91.00;;;;;;1917494;73;21103;-88
2023/08/08 13:31:45;;;;;;;1.02;0.50;;;25.50;90.70;;;;;;1915054;73;21101;-86
2023/08/08 13:34:37;;;;;;;0.68;0.40;;;25.50;89.90;;;;;;1933209;72;21578;-87
2023/08/08 13:37:29;;;;;;;0.60;0.50;;;25.50;90.00;;;;;;1950613;72;21055;-89
2023/08/08 13:43:03;;;;;;;1.37;0.70;;;25.40;90.00;;;;;;1944819;72;22142;-86
2023/08/08 13:45:54;;;;;;;1.12;0.40;;;25.50;90.00;;;;;;1918593;73;21067;-88
2023/08/08 13:48:46;;;;;;;1.45;0.60;;;25.70;89.80;;;;;;1917558;75;21164;-84
2023/08/08 13:54:21;;;;;;;1.82;0.60;;;25.60;88.40;;;;;;1927613;72;22142;-87
2023/08/08 13:57:12;;;;;;;1.17;0.50;;;25.50;88.20;;;;;;1893657;75;21094;-87
2023/08/08 14:00:10;;;;;;;1.35;0.50;;;25.50;88.40;;;;;;1884478;76;21156;-87
2023/08/08 14:05:40;;;;;;;0.80;0.50;;;26.20;86.50;;;;;;1946710;72;22224;-87
2023/08/08 14:08:31;;;;;;;1.52;0.62;;;26.40;86.20;;;;;;1885754;75;21092;-84
2023/08/08 14:14:09;;;;;;;1.05;0.50;;;27.00;86.40;;;;;;1924535;72;22374;-89
2023/08/08 14:17:01;;;;;;;1.07;0.50;;;27.20;85.70;;;;;;1911300;75;21126;-86
2023/08/08 14:19:52;;;;;;;0.60;0.50;;;27.40;84.60;;;;;;1906380;75;21090;-87
2023/08/08 14:25:32;;;;;;;0.93;0.50;;;27.50;81.50;;;;;;1940844;72;22205;-85
2023/08/08 14:28:24;;;;;;;1.05;0.42;;;27.60;79.60;;;;;;1921450;74;21164;-86
2023/08/08 14:33:55;;;;;;;2.20;0.50;;;28.00;78.70;;;;;;1947209;72;22326;-85
2023/08/08 14:39:27;;;;;;;0.95;0.60;;;28.10;76.20;;;;;;1950529;72;22170;-86
2023/08/08 14:44:58;;;;;;;0.80;0.70;;;28.30;76.70;;;;;;1941173;72;22251;-88
2023/08/08 14:47:49;;;;;;;1.87;0.65;;;28.70;74.40;;;;;;1912326;75;21058;-87
2023/08/08 14:50:41;;;;;;;1.57;0.50;;;28.80;73.20;;;;;;1921773;74;21093;-87
2023/08/08 14:53:32;;;;;;;2.22;0.60;;;29.00;74.00;;;;;;1917164;74;21216;-88
2023/08/08 14:56:23;;;;;;;0.78;0.50;;;29.20;72.40;;;;;;1917385;75;21245;-86
2023/08/08 14:59:15;;;;;;;3.10;0.70;;;29.00;70.80;;;;;;1905926;75;21114;-87
2023/08/08 15:02:07;;;;;;;0.80;0.45;;;29.00;70.70;;;;;;1905455;75;21153;-87
2023/08/08 15:07:39;;;;;;;0.82;0.60;;;29.10;69.90;;;;;;1947626;72;22178;-89
2023/08/08 15:10:30;;;;;;;1.57;0.62;;;29.20;69.00;;;;;;1890316;74;21168;-84
2023/08/08 15:13:23;;;;;;;1.47;0.53;;;29.20;66.60;;;;;;1893544;74;21141;-87
2023/08/08 15:18:54;;;;;;;1.40;0.60;;;29.50;66.00;;;;;;1946246;72;22130;-87
2023/08/08 15:21:45;;;;;;;0.80;0.50;;;29.80;65.30;;;;;;1884610;75;21105;-87
2023/08/08 15:27:15;;;;;;;0.82;0.60;;;29.60;65.30;;;;;;1934791;72;22213;-88
2023/08/08 15:30:08;;;;;;;0.95;0.60;;;30.10;65.10;;;;;;1904468;75;21147;-86
2023/08/08 15:32:59;;;;;;;0.80;0.62;;;30.70;63.60;;;;;;1911837;75;21120;-88
2023/08/08 15:35:50;;;;;;;1.70;0.50;;;30.50;62.90;;;;;;1909595;75;21106;-89
2023/08/08 15:38:41;;;;;;;1.47;0.68;;;30.30;62.70;;;;;;1905085;75;21114;-85
2023/08/08 15:41:33;;;;;;;1.17;0.70;;;30.60;61.50;;;;;;1901740;75;21131;-87
2023/08/08 15:44:24;;;;;;;1.00;0.70;;;30.60;61.30;;;;;;1904613;75;21132;-87
2023/08/08 15:49:54;;;;;;;2.55;0.50;;;30.50;58.00;;;;;;1942032;72;22561;-88
2023/08/08 15:52:45;;;;;;;3.95;0.70;;;30.50;59.10;;;;;;1910720;75;21118;-87
2023/08/08 15:55:37;;;;;;;0.82;0.60;;;30.20;59.80;;;;;;1935477;73;21142;-87
2023/08/08 16:01:07;;;;;;;0.95;0.50;;;30.30;58.30;;;;;;1944203;72;22252;-86
2023/08/08 16:03:58;;;;;;;1.80;0.62;;;30.50;58.30;;;;;;1920930;74;21161;-86
2023/08/08 16:06:50;;;;;;;1.27;0.85;;;30.90;58.50;;;;;;1917458;75;21657;-86
2023/08/08 16:09:42;;;;;;;0.80;0.70;;;31.40;58.50;;;;;;1880775;75;21206;-89
2023/08/08 16:12:35;;;;;;;1.42;0.60;;;31.30;58.00;;;;;;1920244;73;21063;-87
2023/08/08 16:15:30;;;;;;;0.50;0.50;;;30.90;57.80;;;;;;1924011;73;21043;-89
2023/08/08 16:18:21;;;;;;;0.82;0.60;;;30.60;57.50;;;;;;1950594;73;21151;-87
2023/08/08 16:21:13;;;;;;;0.80;0.72;;;30.50;57.50;;;;;;1932828;73;21097;-88
2023/08/08 16:24:05;;;;;;;1.45;0.88;;;30.60;57.00;;;;;;1917827;73;21098;-87
2023/08/08 16:26:57;;;;;;;0.90;0.60;;;30.70;56.60;;;;;;1917554;73;21082;-87
2023/08/08 16:29:48;;;;;;;1.00;0.70;;;30.90;56.30;;;;;;1939931;73;21507;-89
2023/08/08 16:32:40;;;;;;;1.00;0.65;;;30.60;56.50;;;;;;1917425;75;21121;-89
2023/08/08 16:35:31;;;;;;;0.68;0.60;;;30.40;57.20;;;;;;1917119;73;21195;-88
2023/08/08 16:41:04;;;;;;;1.60;0.85;;;30.50;56.60;;;;;;1975908;72;22086;-87
2023/08/08 16:46:42;;;;;;;1.37;0.80;;;30.00;56.50;;;;;;1946597;72;22169;-83
2023/08/08 16:49:33;;;;;;;1.10;0.80;;;29.80;56.20;;;;;;1884645;75;21229;-86
2023/08/08 16:52:25;;;;;;;0.60;0.60;;;29.30;56.90;;;;;;1882582;75;21058;-87
2023/08/08 16:55:16;;;;;;;0.88;0.68;;;28.90;57.10;;;;;;1884324;75;21206;-86
2023/08/08 16:58:07;;;;;;;0.60;0.60;;;28.80;57.50;;;;;;1896478;75;21109;-84
2023/08/08 17:00:59;;;;;;;0.95;0.60;;;28.60;57.90;;;;;;1889847;75;21084;-80
2023/08/08 17:03:50;;;;;;;0.93;0.68;;;28.60;56.30;;;;;;1899968;75;21090;-87
2023/08/08 17:09:23;;;;;;;1.98;0.65;;;29.40;56.00;;;;;;1932081;72;22256;-86
2023/08/08 17:14:56;;;;;;;1.72;0.60;;;28.90;56.50;;;;;;1953600;72;22199;-87
2023/08/08 17:20:26;;;;;;;2.33;0.82;;;29.30;56.90;;;;;;1944261;72;22202;-86
2023/08/08 17:23:17;;;;;;;2.10;0.78;;;29.00;57.60;;;;;;1901838;75;21539;-87
2023/08/08 17:26:09;;;;;;;1.90;0.72;;;28.20;58.00;;;;;;1884404;76;21047;-88
2023/08/08 17:31:42;;;;;;;2.35;0.90;;;27.20;59.70;;;;;;1944707;72;22201;-85
2023/08/08 17:34:33;;;;;;;2.10;0.70;;;26.90;59.70;;;;;;1933250;73;21153;-85
2023/08/08 17:40:10;;;;;;;1.90;1.00;;;26.90;59.90;;;;;;1951278;72;22269;-86
2023/08/08 17:43:04;;;;;;;1.27;0.70;;;26.70;60.10;;;;;;1921710;73;21050;-87
2023/08/08 17:45:56;;;;;;;1.30;0.70;;;26.50;60.30;;;;;;1917273;73;21954;-88
2023/08/08 17:48:48;;;;;;;1.45;0.85;;;26.60;60.80;;;;;;1917369;73;21117;-88
2023/08/08 17:51:39;;;;;;;1.60;0.72;;;26.50;60.70;;;;;;1919050;73;21160;-87
2023/08/08 17:54:30;;;;;;;1.47;0.95;;;26.20;60.90;;;;;;1948420;73;21108;-87
2023/08/08 18:10:37;;;;;;;0.80;0.72;;;25.80;62.50;;;;;;1951326;72;22300;-87
2023/08/08 18:13:28;;;;;;;1.15;0.80;;;25.30;64.90;;;;;;1847705;77;21157;-88
2023/08/08 18:18:59;;;;;;;0.98;0.70;;;25.10;65.70;;;;;;1953541;72;22119;-87
2023/08/08 18:21:50;;;;;;;2.17;0.90;;;25.00;66.00;;;;;;1916054;75;21150;-87
2023/08/08 18:27:21;;;;;;;1.85;0.90;;;24.80;67.40;;;;;;1942506;72;22710;-88
2023/08/08 18:30:14;;;;;;;1.10;0.62;;;24.70;67.30;;;;;;1912296;75;21126;-87
2023/08/08 18:48:53;;;;;;;1.65;0.60;;;24.10;69.10;;;;;;1951588;72;22182;-87
2023/08/08 18:51:45;;;;;;;1.20;0.88;;;24.10;68.90;;;;;;1922942;73;21220;-87
2023/08/08 18:54:36;;;;;;;1.02;0.65;;;24.00;69.20;;;;;;1941067;73;21070;-84
2023/08/08 18:57:27;;;;;;;2.05;0.90;;;23.90;69.30;;;;;;1943228;73;21095;-86
2023/08/08 19:00:19;;;;;;;1.32;0.70;;;23.80;69.60;;;;;;1936812;73;21153;-83
2023/08/08 19:05:50;;;;;;;1.20;0.78;;;23.60;70.50;;;;;;1935887;72;22206;-83
2023/08/08 19:08:42;;;;;;;3.58;1.55;;;23.60;70.30;;;;;;1919244;73;21544;-84
2023/08/08 19:11:34;;;;;;;1.80;1.20;;;23.60;71.30;;;;;;1903033;73;21130;-84
2023/08/08 19:14:26;;;;;;;1.42;0.80;;;23.50;71.60;;;;;;1908840;73;21138;-84
2023/08/08 19:17:18;;;;;;;1.77;0.88;;;23.40;70.80;;;;;;1914500;73;21082;-83
2023/08/08 19:20:11;;;;;;;1.10;0.70;;;23.40;71.10;;;;;;1903721;75;21101;-84
2023/08/08 19:23:02;;;;;;;1.60;0.60;;;23.40;70.80;;;;;;1905156;75;21143;-83
2023/08/08 19:25:54;;;;;;;0.70;0.70;;;23.40;70.50;;;;;;1883258;76;21749;-84
2023/08/08 19:28:46;;;;;;;0.70;0.53;;;23.30;71.20;;;;;;1886061;73;21128;-83
2023/08/08 19:34:18;;;;;;;1.65;0.75;;;23.20;72.00;;;;;;1951003;72;23245;-83
2023/08/08 19:37:09;;;;;;;1.10;0.78;;;23.10;71.90;;;;;;1887226;74;21219;-83
2023/08/08 19:40:00;;;;;;;1.10;0.82;;;23.00;71.90;;;;;;1897791;75;21162;-83
2023/08/08 19:42:54;;;;;;;1.12;0.72;;;23.00;72.00;;;;;;1898747;75;21534;-83
2023/08/08 19:45:45;;;;;;;1.37;0.75;;;23.00;72.10;;;;;;1883700;75;21127;-83
2023/08/08 19:48:36;;;;;;;1.32;0.70;;;23.00;72.70;;;;;;1903728;75;21083;-83
2023/08/08 19:51:28;;;;;;;0.98;0.80;;;22.90;73.40;;;;;;1898435;75;21223;-84
2023/08/08 19:56:59;;;;;;;1.27;0.90;;;22.70;74.10;;;;;;1930669;72;22604;-83
2023/08/08 19:59:53;;;;;;;1.10;1.00;;;22.60;74.30;;;;;;1918131;73;21079;-83
2023/08/08 20:02:44;;;;;;;1.47;0.90;;;22.50;74.70;;;;;;1926602;73;21057;-83
2023/08/08 20:08:16;;;;;;;1.20;0.70;;;22.40;75.10;;;;;;1933009;72;22276;-83
2023/08/08 20:11:08;;;;;;;2.27;0.70;;;22.40;76.00;;;;;;1929946;73;21133;-83
2023/08/08 20:13:59;;;;;;;2.15;0.80;;;22.40;76.10;;;;;;1920325;73;21176;-84
2023/08/08 20:16:54;;;;;;;1.62;0.70;;;22.40;76.50;;;;;;1928527;73;21102;-83
2023/08/08 20:19:45;;;;;;;3.33;0.85;;;22.30;76.50;;;;;;1929849;73;21085;-84